sensor_id;sensor_type;location;lat;lon;timestamp;pressure;altitude;pressure_sealevel;temperature;humidity
56713;BME280;42589;45.536;9.032;2022-09-17T00:00:39;98213.94;;;29.28;20.14
56713;BME280;42589;45.536;9.032;2022-09-17T00:03:40;98210.34;;;28.96;20.71
56713;BME280;42589;45.536;9.032;2022-09-17T00:06:41;98207.88;;;28.50;20.76
56713;BME280;42589;45.536;9.032;2022-09-17T00:09:42;98195.78;;;28.42;21.05
56713;BME280;42589;45.536;9.032;2022-09-17T00:12:43;98203.72;;;28.38;21.06
56713;BME280;42589;45.536;9.032;2022-09-17T00:15:45;98201.13;;;28.19;20.93
56713;BME280;42589;45.536;9.032;2022-09-17T00:18:47;98200.47;;;28.50;20.50
56713;BME280;42589;45.536;9.032;2022-09-17T00:21:48;98189.69;;;28.90;19.83
56713;BME280;42589;45.536;9.032;2022-09-17T00:24:49;98191.28;;;28.46;20.28
56713;BME280;42589;45.536;9.032;2022-09-17T00:27:50;98185.94;;;29.31;19.62
56713;BME280;42589;45.536;9.032;2022-09-17T00:30:54;98198.38;;;29.14;19.92
56713;BME280;42589;45.536;9.032;2022-09-17T00:33:55;98180.66;;;29.34;19.76
56713;BME280;42589;45.536;9.032;2022-09-17T00:36:56;98188.19;;;29.29;19.70
56713;BME280;42589;45.536;9.032;2022-09-17T00:39:58;98195.50;;;29.82;19.29
56713;BME280;42589;45.536;9.032;2022-09-17T00:43:00;98202.09;;;29.41;19.46
56713;BME280;42589;45.536;9.032;2022-09-17T00:46:02;98204.69;;;28.92;19.74
56713;BME280;42589;45.536;9.032;2022-09-17T00:49:13;98211.19;;;29.28;19.62
56713;BME280;42589;45.536;9.032;2022-09-17T00:52:21;98216.06;;;28.50;20.20
56713;BME280;42589;45.536;9.032;2022-09-17T00:55:32;98203.81;;;28.83;19.94
56713;BME280;42589;45.536;9.032;2022-09-17T00:58:35;98212.69;;;29.34;19.32
56713;BME280;42589;45.536;9.032;2022-09-17T01:01:36;98198.19;;;29.65;19.24
56713;BME280;42589;45.536;9.032;2022-09-17T01:04:38;98211.63;;;28.76;19.74
56713;BME280;42589;45.536;9.032;2022-09-17T01:31:13;98223.56;;;29.56;18.82
56713;BME280;42589;45.536;9.032;2022-09-17T01:37:49;98233.34;;;30.20;19.76
56713;BME280;42589;45.536;9.032;2022-09-17T01:44:34;98251.50;;;30.07;31.97
56713;BME280;42589;45.536;9.032;2022-09-17T01:47:38;98246.91;;;29.94;32.49
56713;BME280;42589;45.536;9.032;2022-09-17T01:50:48;98257.22;;;29.88;34.42
56713;BME280;42589;45.536;9.032;2022-09-17T01:53:56;98239.72;;;28.54;40.07
56713;BME280;42589;45.536;9.032;2022-09-17T01:57:04;98263.03;;;29.33;39.79
56713;BME280;42589;45.536;9.032;2022-09-17T02:00:10;98277.41;;;29.61;39.65
56713;BME280;42589;45.536;9.032;2022-09-17T02:03:35;98282.91;;;29.16;40.54
56713;BME280;42589;45.536;9.032;2022-09-17T02:06:40;98284.53;;;28.81;41.88
56713;BME280;42589;45.536;9.032;2022-09-17T02:09:46;98279.41;;;29.02;41.98
56713;BME280;42589;45.536;9.032;2022-09-17T02:13:00;98286.28;;;28.77;43.33
56713;BME280;42589;45.536;9.032;2022-09-17T02:16:07;98288.16;;;28.26;44.79
56713;BME280;42589;45.536;9.032;2022-09-17T02:19:23;98274.09;;;27.77;46.28
56713;BME280;42589;45.536;9.032;2022-09-17T02:22:42;98291.81;;;27.61;46.57
56713;BME280;42589;45.536;9.032;2022-09-17T02:26:09;98284.59;;;28.26;45.37
56713;BME280;42589;45.536;9.032;2022-09-17T02:29:23;98303.53;;;27.94;46.06
56713;BME280;42589;45.536;9.032;2022-09-17T02:32:26;98304.00;;;27.69;46.54
56713;BME280;42589;45.536;9.032;2022-09-17T02:35:30;98297.72;;;27.36;47.99
56713;BME280;42589;45.536;9.032;2022-09-17T02:38:31;98302.75;;;27.75;46.47
56713;BME280;42589;45.536;9.032;2022-09-17T02:41:43;98297.69;;;27.68;46.07
56713;BME280;42589;45.536;9.032;2022-09-17T02:48:28;98306.84;;;27.45;46.01
56713;BME280;42589;45.536;9.032;2022-09-17T02:51:55;98311.88;;;27.70;45.59
56713;BME280;42589;45.536;9.032;2022-09-17T02:55:14;98284.31;;;27.39;46.58
56713;BME280;42589;45.536;9.032;2022-09-17T02:58:25;98306.75;;;26.98;47.85
56713;BME280;42589;45.536;9.032;2022-09-17T03:01:32;98292.97;;;25.85;49.28
56713;BME280;42589;45.536;9.032;2022-09-17T03:04:37;98304.75;;;27.04;46.25
56713;BME280;42589;45.536;9.032;2022-09-17T03:07:39;98301.66;;;26.73;47.01
56713;BME280;42589;45.536;9.032;2022-09-17T03:10:39;98303.00;;;26.75;47.25
56713;BME280;42589;45.536;9.032;2022-09-17T03:13:40;98298.78;;;27.21;46.53
56713;BME280;42589;45.536;9.032;2022-09-17T03:16:41;98302.56;;;27.25;45.91
56713;BME280;42589;45.536;9.032;2022-09-17T03:19:42;98307.56;;;26.80;47.41
56713;BME280;42589;45.536;9.032;2022-09-17T03:22:46;98291.69;;;26.01;48.36
56713;BME280;42589;45.536;9.032;2022-09-17T03:25:46;98298.94;;;26.54;47.25
56713;BME280;42589;45.536;9.032;2022-09-17T03:28:48;98308.31;;;26.85;47.00
56713;BME280;42589;45.536;9.032;2022-09-17T03:31:49;98302.94;;;26.37;47.47
56713;BME280;42589;45.536;9.032;2022-09-17T03:34:51;98308.88;;;27.20;46.13
56713;BME280;42589;45.536;9.032;2022-09-17T03:37:53;98312.97;;;27.37;45.51
56713;BME280;42589;45.536;9.032;2022-09-17T03:41:01;98314.81;;;26.71;47.02
56713;BME280;42589;45.536;9.032;2022-09-17T03:44:02;98318.34;;;27.28;45.34
56713;BME280;42589;45.536;9.032;2022-09-17T03:47:03;98310.41;;;27.59;44.91
56713;BME280;42589;45.536;9.032;2022-09-17T03:50:04;98317.53;;;26.90;46.26
56713;BME280;42589;45.536;9.032;2022-09-17T03:53:08;98328.50;;;26.84;46.33
56713;BME280;42589;45.536;9.032;2022-09-17T03:56:10;98334.31;;;26.59;47.12
56713;BME280;42589;45.536;9.032;2022-09-17T03:59:11;98334.69;;;26.90;46.53
56713;BME280;42589;45.536;9.032;2022-09-17T04:02:11;98335.19;;;27.11;46.39
56713;BME280;42589;45.536;9.032;2022-09-17T04:05:12;98337.13;;;27.29;45.88
56713;BME280;42589;45.536;9.032;2022-09-17T04:08:13;98350.78;;;26.49;47.26
56713;BME280;42589;45.536;9.032;2022-09-17T04:11:13;98346.13;;;26.25;47.43
56713;BME280;42589;45.536;9.032;2022-09-17T04:14:15;98356.94;;;25.82;48.69
56713;BME280;42589;45.536;9.032;2022-09-17T04:17:17;98371.66;;;26.58;47.34
56713;BME280;42589;45.536;9.032;2022-09-17T04:20:19;98365.63;;;25.79;48.88
56713;BME280;42589;45.536;9.032;2022-09-17T04:23:20;98377.47;;;25.99;48.27
56713;BME280;42589;45.536;9.032;2022-09-17T04:26:21;98388.66;;;26.69;46.71
56713;BME280;42589;45.536;9.032;2022-09-17T04:29:23;98391.69;;;26.68;46.50
56713;BME280;42589;45.536;9.032;2022-09-17T04:32:24;98408.69;;;26.59;46.25
56713;BME280;42589;45.536;9.032;2022-09-17T04:35:24;98424.56;;;26.52;46.69
56713;BME280;42589;45.536;9.032;2022-09-17T04:38:25;98413.06;;;26.79;45.94
56713;BME280;42589;45.536;9.032;2022-09-17T04:41:29;98411.91;;;26.37;46.36
56713;BME280;42589;45.536;9.032;2022-09-17T04:44:30;98402.84;;;26.18;47.11
56713;BME280;42589;45.536;9.032;2022-09-17T04:47:31;98401.63;;;26.05;46.74
56713;BME280;42589;45.536;9.032;2022-09-17T04:50:32;98425.16;;;26.20;45.90
56713;BME280;42589;45.536;9.032;2022-09-17T04:53:33;98433.47;;;26.82;44.29
56713;BME280;42589;45.536;9.032;2022-09-17T04:56:33;98440.88;;;25.99;45.80
56713;BME280;42589;45.536;9.032;2022-09-17T04:59:37;98442.59;;;25.51;45.51
56713;BME280;42589;45.536;9.032;2022-09-17T05:02:38;98443.47;;;25.85;44.49
56713;BME280;42589;45.536;9.032;2022-09-17T05:05:39;98447.03;;;24.87;46.21
56713;BME280;42589;45.536;9.032;2022-09-17T05:08:40;98442.00;;;25.19;45.00
56713;BME280;42589;45.536;9.032;2022-09-17T05:11:41;98440.28;;;25.68;43.60
56713;BME280;42589;45.536;9.032;2022-09-17T05:14:43;98456.78;;;25.42;44.42
56713;BME280;42589;45.536;9.032;2022-09-17T05:17:55;98459.94;;;25.99;42.96
56713;BME280;42589;45.536;9.032;2022-09-17T05:20:56;98479.50;;;25.62;43.82
56713;BME280;42589;45.536;9.032;2022-09-17T05:23:58;98481.59;;;25.36;44.83
56713;BME280;42589;45.536;9.032;2022-09-17T05:27:00;98476.00;;;25.56;43.91
56713;BME280;42589;45.536;9.032;2022-09-17T05:30:04;98473.50;;;25.65;43.84
56713;BME280;42589;45.536;9.032;2022-09-17T05:33:06;98492.81;;;26.08;43.22
56713;BME280;42589;45.536;9.032;2022-09-17T05:36:07;98486.59;;;26.31;42.51
56713;BME280;42589;45.536;9.032;2022-09-17T05:39:09;98489.81;;;25.70;43.53
56713;BME280;42589;45.536;9.032;2022-09-17T05:42:10;98494.75;;;26.31;42.54
56713;BME280;42589;45.536;9.032;2022-09-17T05:45:16;98499.53;;;26.45;42.36
56713;BME280;42589;45.536;9.032;2022-09-17T05:48:21;98498.97;;;26.48;42.21
56713;BME280;42589;45.536;9.032;2022-09-17T05:51:21;98514.34;;;26.68;41.97
56713;BME280;42589;45.536;9.032;2022-09-17T05:54:22;98511.19;;;26.79;41.65
56713;BME280;42589;45.536;9.032;2022-09-17T05:57:28;98510.72;;;26.14;42.53
56713;BME280;42589;45.536;9.032;2022-09-17T06:00:29;98522.19;;;25.12;45.03
56713;BME280;42589;45.536;9.032;2022-09-17T06:03:30;98503.25;;;25.96;43.15
56713;BME280;42589;45.536;9.032;2022-09-17T06:06:30;98522.31;;;26.83;41.25
56713;BME280;42589;45.536;9.032;2022-09-17T06:09:35;98525.59;;;26.61;40.98
56713;BME280;42589;45.536;9.032;2022-09-17T06:12:36;98515.66;;;26.70;38.82
56713;BME280;42589;45.536;9.032;2022-09-17T06:15:37;98518.72;;;25.61;41.03
56713;BME280;42589;45.536;9.032;2022-09-17T06:18:38;98516.63;;;24.77;37.67
56713;BME280;42589;45.536;9.032;2022-09-17T06:21:39;98507.88;;;24.91;34.32
56713;BME280;42589;45.536;9.032;2022-09-17T06:24:41;98520.66;;;24.80;24.60
56713;BME280;42589;45.536;9.032;2022-09-17T06:27:42;98512.88;;;24.58;20.58
56713;BME280;42589;45.536;9.032;2022-09-17T06:30:43;98519.84;;;25.50;19.35
56713;BME280;42589;45.536;9.032;2022-09-17T06:33:44;98503.56;;;26.23;19.01
56713;BME280;42589;45.536;9.032;2022-09-17T06:36:45;98529.25;;;26.12;17.92
56713;BME280;42589;45.536;9.032;2022-09-17T06:39:47;98534.00;;;25.52;18.88
56713;BME280;42589;45.536;9.032;2022-09-17T06:42:47;98518.00;;;25.40;18.14
56713;BME280;42589;45.536;9.032;2022-09-17T06:46:01;98533.41;;;24.95;18.30
56713;BME280;42589;45.536;9.032;2022-09-17T06:49:03;98536.81;;;25.86;17.88
56713;BME280;42589;45.536;9.032;2022-09-17T06:52:04;98524.13;;;25.06;18.55
56713;BME280;42589;45.536;9.032;2022-09-17T06:55:05;98540.75;;;24.94;18.48
56713;BME280;42589;45.536;9.032;2022-09-17T06:58:06;98531.22;;;25.62;17.71
56713;BME280;42589;45.536;9.032;2022-09-17T07:01:08;98540.06;;;25.33;17.68
56713;BME280;42589;45.536;9.032;2022-09-17T07:04:09;98557.06;;;24.94;17.82
56713;BME280;42589;45.536;9.032;2022-09-17T07:07:10;98564.75;;;24.51;17.81
56713;BME280;42589;45.536;9.032;2022-09-17T07:10:11;98572.25;;;25.16;17.39
56713;BME280;42589;45.536;9.032;2022-09-17T07:13:14;98564.72;;;24.77;17.42
56713;BME280;42589;45.536;9.032;2022-09-17T07:16:15;98575.47;;;25.23;16.94
56713;BME280;42589;45.536;9.032;2022-09-17T07:19:15;98565.84;;;26.01;16.74
56713;BME280;42589;45.536;9.032;2022-09-17T07:22:17;98556.31;;;25.48;16.87
56713;BME280;42589;45.536;9.032;2022-09-17T07:25:18;98564.16;;;24.90;17.11
56713;BME280;42589;45.536;9.032;2022-09-17T07:28:19;98558.72;;;24.90;16.75
56713;BME280;42589;45.536;9.032;2022-09-17T07:31:19;98586.47;;;24.72;17.04
56713;BME280;42589;45.536;9.032;2022-09-17T07:34:20;98603.28;;;24.84;16.91
56713;BME280;42589;45.536;9.032;2022-09-17T07:37:21;98628.56;;;24.90;16.59
56713;BME280;42589;45.536;9.032;2022-09-17T07:40:22;98637.00;;;24.68;16.79
56713;BME280;42589;45.536;9.032;2022-09-17T07:43:28;98623.91;;;25.16;16.75
56713;BME280;42589;45.536;9.032;2022-09-17T07:46:30;98631.03;;;25.82;16.54
56713;BME280;42589;45.536;9.032;2022-09-17T07:49:37;98624.63;;;25.42;16.35
56713;BME280;42589;45.536;9.032;2022-09-17T07:52:44;98637.22;;;25.07;16.80
56713;BME280;42589;45.536;9.032;2022-09-17T07:55:53;98641.88;;;24.96;17.31
56713;BME280;42589;45.536;9.032;2022-09-17T07:58:54;98641.81;;;25.27;17.00
56713;BME280;42589;45.536;9.032;2022-09-17T08:01:55;98643.50;;;24.51;17.25
56713;BME280;42589;45.536;9.032;2022-09-17T08:04:56;98654.13;;;25.84;16.50
56713;BME280;42589;45.536;9.032;2022-09-17T08:07:57;98666.47;;;25.56;16.76
56713;BME280;42589;45.536;9.032;2022-09-17T08:11:07;98666.50;;;26.11;16.45
56713;BME280;42589;45.536;9.032;2022-09-17T08:14:13;98668.78;;;24.93;17.62
56713;BME280;42589;45.536;9.032;2022-09-17T08:17:14;98674.69;;;25.36;16.77
56713;BME280;42589;45.536;9.032;2022-09-17T08:20:16;98686.84;;;25.64;16.83
56713;BME280;42589;45.536;9.032;2022-09-17T08:23:17;98680.66;;;25.48;16.26
56713;BME280;42589;45.536;9.032;2022-09-17T08:26:21;98691.69;;;25.72;16.30
56713;BME280;42589;45.536;9.032;2022-09-17T08:29:22;98688.59;;;25.04;16.78
56713;BME280;42589;45.536;9.032;2022-09-17T08:32:22;98699.34;;;25.65;16.42
56713;BME280;42589;45.536;9.032;2022-09-17T08:35:23;98688.38;;;25.90;15.81
56713;BME280;42589;45.536;9.032;2022-09-17T08:38:26;98705.09;;;25.58;15.92
56713;BME280;42589;45.536;9.032;2022-09-17T08:44:45;98703.53;;;24.96;16.23
56713;BME280;42589;45.536;9.032;2022-09-17T08:47:47;98707.34;;;25.05;15.87
56713;BME280;42589;45.536;9.032;2022-09-17T08:50:49;98720.59;;;25.63;15.56
56713;BME280;42589;45.536;9.032;2022-09-17T08:54:03;98757.94;;;25.27;15.52
56713;BME280;42589;45.536;9.032;2022-09-17T08:57:36;98740.66;;;25.87;15.42
56713;BME280;42589;45.536;9.032;2022-09-17T09:00:52;98744.53;;;25.66;15.67
56713;BME280;42589;45.536;9.032;2022-09-17T09:07:13;98733.94;;;25.59;16.13
56713;BME280;42589;45.536;9.032;2022-09-17T09:10:26;98741.59;;;27.06;15.25
56713;BME280;42589;45.536;9.032;2022-09-17T09:13:54;98756.59;;;27.08;15.46
56713;BME280;42589;45.536;9.032;2022-09-17T09:16:57;98746.13;;;25.87;16.01
56713;BME280;42589;45.536;9.032;2022-09-17T09:20:00;98763.75;;;26.05;15.61
56713;BME280;42589;45.536;9.032;2022-09-17T09:23:13;98755.13;;;26.43;15.77
56713;BME280;42589;45.536;9.032;2022-09-17T09:26:19;98757.75;;;26.08;15.87
56713;BME280;42589;45.536;9.032;2022-09-17T09:29:38;98773.09;;;26.88;15.34
56713;BME280;42589;45.536;9.032;2022-09-17T09:32:53;98780.44;;;26.43;15.56
56713;BME280;42589;45.536;9.032;2022-09-17T09:35:56;98776.31;;;26.95;15.71
56713;BME280;42589;45.536;9.032;2022-09-17T09:39:00;98773.06;;;26.93;15.87
56713;BME280;42589;45.536;9.032;2022-09-17T09:42:22;98778.06;;;26.81;15.22
56713;BME280;42589;45.536;9.032;2022-09-17T09:45:49;98803.13;;;27.22;15.19
56713;BME280;42589;45.536;9.032;2022-09-17T09:53:09;98814.94;;;27.47;14.96
56713;BME280;42589;45.536;9.032;2022-09-17T09:59:43;98843.69;;;26.35;15.40
56713;BME280;42589;45.536;9.032;2022-09-17T10:02:44;98828.53;;;28.72;15.05
56713;BME280;42589;45.536;9.032;2022-09-17T10:06:06;98837.69;;;29.00;14.62
56713;BME280;42589;45.536;9.032;2022-09-17T10:09:09;98817.25;;;27.29;15.08
56713;BME280;42589;45.536;9.032;2022-09-17T10:12:16;98846.81;;;27.81;27.20
56713;BME280;42589;45.536;9.032;2022-09-17T10:15:24;98858.28;;;28.07;29.35
56713;BME280;42589;45.536;9.032;2022-09-17T10:18:28;98835.09;;;27.75;30.07
56713;BME280;42589;45.536;9.032;2022-09-17T10:21:30;98846.09;;;28.47;28.84
56713;BME280;42589;45.536;9.032;2022-09-17T10:24:32;98843.81;;;28.73;28.57
56713;BME280;42589;45.536;9.032;2022-09-17T10:27:35;98856.75;;;28.49;29.12
56713;BME280;42589;45.536;9.032;2022-09-17T10:30:36;98868.25;;;28.21;30.00
56713;BME280;42589;45.536;9.032;2022-09-17T10:34:00;98869.22;;;27.48;31.19
56713;BME280;42589;45.536;9.032;2022-09-17T10:37:01;98876.81;;;27.86;31.02
56713;BME280;42589;45.536;9.032;2022-09-17T10:43:24;98881.38;;;28.19;30.67
56713;BME280;42589;45.536;9.032;2022-09-17T10:46:27;98884.78;;;28.06;29.61
56713;BME280;42589;45.536;9.032;2022-09-17T10:49:38;98887.91;;;28.48;28.50
56713;BME280;42589;45.536;9.032;2022-09-17T10:52:47;98883.44;;;27.45;30.63
56713;BME280;42589;45.536;9.032;2022-09-17T11:09:46;98902.19;;;28.39;31.93
56713;BME280;42589;45.536;9.032;2022-09-17T11:16:17;98930.31;;;28.16;32.08
56713;BME280;42589;45.536;9.032;2022-09-17T11:23:21;98922.53;;;28.28;32.11
56713;BME280;42589;45.536;9.032;2022-09-17T11:26:46;98930.44;;;27.71;32.11
56713;BME280;42589;45.536;9.032;2022-09-17T11:30:03;98937.56;;;27.67;31.82
56713;BME280;42589;45.536;9.032;2022-09-17T11:37:22;98957.59;;;27.92;32.00
56713;BME280;42589;45.536;9.032;2022-09-17T11:43:46;98921.41;;;27.76;31.36
56713;BME280;42589;45.536;9.032;2022-09-17T11:47:35;98944.16;;;28.00;31.10
56713;BME280;42589;45.536;9.032;2022-09-17T11:50:21;98951.16;;;28.07;31.22
56713;BME280;42589;45.536;9.032;2022-09-17T11:53:40;98949.16;;;28.17;31.05
56713;BME280;42589;45.536;9.032;2022-09-17T11:56:46;98939.13;;;27.44;30.63
56713;BME280;42589;45.536;9.032;2022-09-17T12:03:18;98930.00;;;27.93;30.22
56713;BME280;42589;45.536;9.032;2022-09-17T12:06:47;98922.13;;;27.52;30.74
56713;BME280;42589;45.536;9.032;2022-09-17T12:10:14;98930.84;;;27.15;31.69
56713;BME280;42589;45.536;9.032;2022-09-17T12:13:39;98927.75;;;27.32;31.12
56713;BME280;42589;45.536;9.032;2022-09-17T12:16:43;98916.63;;;27.58;29.88
56713;BME280;42589;45.536;9.032;2022-09-17T12:19:55;98920.56;;;28.34;29.01
56713;BME280;42589;45.536;9.032;2022-09-17T12:22:58;98925.13;;;28.67;28.57
56713;BME280;42589;45.536;9.032;2022-09-17T12:36:36;98927.59;;;28.45;28.21
56713;BME280;42589;45.536;9.032;2022-09-17T12:40:08;98928.63;;;28.49;28.02
56713;BME280;42589;45.536;9.032;2022-09-17T12:50:23;98902.47;;;27.16;30.08
56713;BME280;42589;45.536;9.032;2022-09-17T13:00:12;98917.03;;;27.41;29.22
56713;BME280;42589;45.536;9.032;2022-09-17T13:03:24;98905.63;;;27.97;29.61
56713;BME280;42589;45.536;9.032;2022-09-17T13:06:49;98904.84;;;27.96;30.09
56713;BME280;42589;45.536;9.032;2022-09-17T13:13:57;98899.75;;;29.05;29.46
56713;BME280;42589;45.536;9.032;2022-09-17T13:20:16;98904.94;;;28.63;29.15
56713;BME280;42589;45.536;9.032;2022-09-17T13:23:38;98897.53;;;28.45;29.11
56713;BME280;42589;45.536;9.032;2022-09-17T13:26:39;98906.72;;;28.25;28.15
56713;BME280;42589;45.536;9.032;2022-09-17T13:32:46;98910.47;;;29.20;26.74
56713;BME280;42589;45.536;9.032;2022-09-17T13:35:47;98902.69;;;28.46;26.83
56713;BME280;42589;45.536;9.032;2022-09-17T13:38:52;98909.75;;;28.48;27.61
56713;BME280;42589;45.536;9.032;2022-09-17T13:42:05;98911.91;;;28.51;27.40
56713;BME280;42589;45.536;9.032;2022-09-17T13:45:12;98908.81;;;28.33;26.64
56713;BME280;42589;45.536;9.032;2022-09-17T13:48:24;98898.59;;;28.68;26.38
56713;BME280;42589;45.536;9.032;2022-09-17T13:54:36;98919.28;;;29.17;25.84
56713;BME280;42589;45.536;9.032;2022-09-17T13:57:47;98923.28;;;29.06;25.64
56713;BME280;42589;45.536;9.032;2022-09-17T14:01:16;98922.94;;;27.87;26.75
56713;BME280;42589;45.536;9.032;2022-09-17T14:04:45;98896.16;;;28.85;23.29
56713;BME280;42589;45.536;9.032;2022-09-17T14:07:48;98907.84;;;28.91;24.37
56713;BME280;42589;45.536;9.032;2022-09-17T14:10:50;98911.63;;;28.95;23.54
56713;BME280;42589;45.536;9.032;2022-09-17T14:16:55;98931.94;;;28.46;17.35
56713;BME280;42589;45.536;9.032;2022-09-17T14:19:56;98916.00;;;27.31;14.56
56713;BME280;42589;45.536;9.032;2022-09-17T14:22:59;98910.59;;;27.95;13.82
56713;BME280;42589;45.536;9.032;2022-09-17T14:26:04;98914.59;;;28.03;13.97
56713;BME280;42589;45.536;9.032;2022-09-17T14:32:50;98909.50;;;27.96;13.82
56713;BME280;42589;45.536;9.032;2022-09-17T14:35:49;98908.00;;;28.81;13.68
56713;BME280;42589;45.536;9.032;2022-09-17T14:38:53;98902.03;;;27.38;13.94
56713;BME280;42589;45.536;9.032;2022-09-17T14:41:59;98896.72;;;28.39;13.66
56713;BME280;42589;45.536;9.032;2022-09-17T14:45:10;98884.44;;;27.89;14.10
56713;BME280;42589;45.536;9.032;2022-09-17T14:48:19;98872.75;;;27.49;14.50
56713;BME280;42589;45.536;9.032;2022-09-17T14:51:25;98869.28;;;28.26;14.12
56713;BME280;42589;45.536;9.032;2022-09-17T14:54:34;98878.75;;;28.57;18.32
56713;BME280;42589;45.536;9.032;2022-09-17T14:57:36;98895.34;;;28.85;17.12
56713;BME280;42589;45.536;9.032;2022-09-17T15:00:37;98892.97;;;27.82;15.73
56713;BME280;42589;45.536;9.032;2022-09-17T15:03:38;98898.25;;;28.51;16.29
56713;BME280;42589;45.536;9.032;2022-09-17T15:06:42;98909.09;;;28.99;14.15
56713;BME280;42589;45.536;9.032;2022-09-17T15:09:44;98903.13;;;27.71;14.08
56713;BME280;42589;45.536;9.032;2022-09-17T15:12:45;98902.59;;;28.28;13.71
56713;BME280;42589;45.536;9.032;2022-09-17T15:15:56;98896.50;;;28.60;13.84
56713;BME280;42589;45.536;9.032;2022-09-17T15:18:59;98889.78;;;28.52;13.61
56713;BME280;42589;45.536;9.032;2022-09-17T15:22:28;98902.00;;;28.79;13.75
56713;BME280;42589;45.536;9.032;2022-09-17T15:25:31;98914.03;;;28.06;14.24
56713;BME280;42589;45.536;9.032;2022-09-17T15:28:40;98919.81;;;28.95;13.92
56713;BME280;42589;45.536;9.032;2022-09-17T15:31:43;98934.09;;;27.91;14.49
56713;BME280;42589;45.536;9.032;2022-09-17T15:38:26;98912.34;;;28.82;13.78
56713;BME280;42589;45.536;9.032;2022-09-17T15:41:53;98940.66;;;28.72;13.93
56713;BME280;42589;45.536;9.032;2022-09-17T15:45:17;98931.72;;;28.37;13.95
56713;BME280;42589;45.536;9.032;2022-09-17T15:48:36;98933.59;;;28.66;13.71
56713;BME280;42589;45.536;9.032;2022-09-17T15:51:37;98924.69;;;27.73;14.74
56713;BME280;42589;45.536;9.032;2022-09-17T15:54:39;98939.50;;;28.01;14.17
56713;BME280;42589;45.536;9.032;2022-09-17T15:57:42;98948.94;;;27.85;13.74
56713;BME280;42589;45.536;9.032;2022-09-17T16:00:44;98957.19;;;28.62;13.52
56713;BME280;42589;45.536;9.032;2022-09-17T16:07:01;98954.50;;;28.57;13.65
56713;BME280;42589;45.536;9.032;2022-09-17T16:10:02;98947.84;;;30.14;12.54
56713;BME280;42589;45.536;9.032;2022-09-17T16:13:03;98946.19;;;32.05;11.73
56713;BME280;42589;45.536;9.032;2022-09-17T16:16:05;98936.28;;;31.95;11.26
56713;BME280;42589;45.536;9.032;2022-09-17T16:19:08;98960.72;;;33.51;10.60
56713;BME280;42589;45.536;9.032;2022-09-17T16:22:11;98962.50;;;31.56;11.64
56713;BME280;42589;45.536;9.032;2022-09-17T16:25:21;98953.22;;;28.92;12.97
56713;BME280;42589;45.536;9.032;2022-09-17T16:28:26;98956.81;;;28.15;13.42
56713;BME280;42589;45.536;9.032;2022-09-17T16:31:30;98967.44;;;27.88;13.80
56713;BME280;42589;45.536;9.032;2022-09-17T16:34:36;98971.66;;;27.30;13.93
56713;BME280;42589;45.536;9.032;2022-09-17T16:37:37;98968.41;;;28.31;13.69
56713;BME280;42589;45.536;9.032;2022-09-17T16:40:40;98965.22;;;27.95;13.95
56713;BME280;42589;45.536;9.032;2022-09-17T16:43:41;98989.63;;;27.42;14.37
56713;BME280;42589;45.536;9.032;2022-09-17T16:46:42;98991.31;;;27.77;14.21
56713;BME280;42589;45.536;9.032;2022-09-17T16:49:43;98985.72;;;27.92;13.99
56713;BME280;42589;45.536;9.032;2022-09-17T16:52:45;98996.97;;;27.41;14.05
56713;BME280;42589;45.536;9.032;2022-09-17T16:55:45;98992.00;;;27.53;14.19
56713;BME280;42589;45.536;9.032;2022-09-17T16:58:47;99008.09;;;27.00;14.24
56713;BME280;42589;45.536;9.032;2022-09-17T17:01:51;99007.41;;;27.73;14.17
56713;BME280;42589;45.536;9.032;2022-09-17T17:04:52;99019.34;;;28.51;14.03
56713;BME280;42589;45.536;9.032;2022-09-17T17:07:53;99016.34;;;29.01;13.63
56713;BME280;42589;45.536;9.032;2022-09-17T17:10:54;99014.06;;;28.84;14.13
56713;BME280;42589;45.536;9.032;2022-09-17T17:13:56;99023.53;;;28.09;15.77
56713;BME280;42589;45.536;9.032;2022-09-17T17:16:56;99033.59;;;27.85;15.27
56713;BME280;42589;45.536;9.032;2022-09-17T17:19:57;99039.81;;;28.19;15.11
56713;BME280;42589;45.536;9.032;2022-09-17T17:22:59;99054.03;;;28.56;14.61
56713;BME280;42589;45.536;9.032;2022-09-17T17:26:01;99038.03;;;27.11;15.71
56713;BME280;42589;45.536;9.032;2022-09-17T17:29:02;99042.16;;;26.98;15.53
56713;BME280;42589;45.536;9.032;2022-09-17T17:32:04;99057.63;;;27.77;15.30
56713;BME280;42589;45.536;9.032;2022-09-17T17:35:05;99051.00;;;27.44;15.52
56713;BME280;42589;45.536;9.032;2022-09-17T17:38:30;99060.41;;;27.67;15.37
56713;BME280;42589;45.536;9.032;2022-09-17T17:41:33;99050.88;;;27.65;15.39
56713;BME280;42589;45.536;9.032;2022-09-17T17:44:34;99068.06;;;28.10;15.46
56713;BME280;42589;45.536;9.032;2022-09-17T17:47:35;99062.63;;;27.05;15.94
56713;BME280;42589;45.536;9.032;2022-09-17T17:50:37;99081.25;;;27.53;15.76
56713;BME280;42589;45.536;9.032;2022-09-17T17:53:42;99084.72;;;27.69;15.86
56713;BME280;42589;45.536;9.032;2022-09-17T17:56:42;99094.28;;;27.61;15.81
56713;BME280;42589;45.536;9.032;2022-09-17T17:59:43;99095.31;;;27.11;15.84
56713;BME280;42589;45.536;9.032;2022-09-17T18:02:48;99105.34;;;27.36;15.86
56713;BME280;42589;45.536;9.032;2022-09-17T18:05:53;99104.78;;;27.39;15.98
56713;BME280;42589;45.536;9.032;2022-09-17T18:08:57;99101.00;;;27.35;15.46
56713;BME280;42589;45.536;9.032;2022-09-17T18:11:58;99092.31;;;27.22;16.16
56713;BME280;42589;45.536;9.032;2022-09-17T18:14:59;99112.31;;;26.72;15.83
56713;BME280;42589;45.536;9.032;2022-09-17T18:17:59;99123.41;;;27.11;15.92
56713;BME280;42589;45.536;9.032;2022-09-17T18:21:02;99124.53;;;27.15;15.81
56713;BME280;42589;45.536;9.032;2022-09-17T18:24:05;99124.66;;;27.49;15.51
56713;BME280;42589;45.536;9.032;2022-09-17T18:27:07;99134.31;;;27.11;15.84
56713;BME280;42589;45.536;9.032;2022-09-17T18:30:11;99134.34;;;27.01;16.08
56713;BME280;42589;45.536;9.032;2022-09-17T18:33:19;99141.22;;;26.68;16.50
56713;BME280;42589;45.536;9.032;2022-09-17T18:36:22;99148.84;;;26.45;16.45